sensor_id;sensor_type;location;lat;lon;timestamp;P1;durP1;ratioP1;P2;durP2;ratioP2
78840;SDS011;68191;47.190;27.558;2023-03-02T00:01:10;7.00;;;5.70;;
78840;SDS011;68191;47.190;27.558;2023-03-02T00:03:40;7.20;;;5.40;;
78840;SDS011;68191;47.190;27.558;2023-03-02T00:06:11;7.90;;;6.10;;
78840;SDS011;68191;47.190;27.558;2023-03-02T00:08:41;8.80;;;6.30;;
78840;SDS011;68191;47.190;27.558;2023-03-02T00:11:12;7.50;;;5.60;;
78840;SDS011;68191;47.190;27.558;2023-03-02T00:13:42;8.00;;;6.30;;
78840;SDS011;68191;47.190;27.558;2023-03-02T00:16:13;7.50;;;6.00;;
78840;SDS011;68191;47.190;27.558;2023-03-02T00:18:43;7.10;;;5.50;;
78840;SDS011;68191;47.190;27.558;2023-03-02T00:21:13;7.40;;;5.60;;
78840;SDS011;68191;47.190;27.558;2023-03-02T00:23:44;8.30;;;6.00;;
78840;SDS011;68191;47.190;27.558;2023-03-02T00:26:14;7.70;;;5.50;;
78840;SDS011;68191;47.190;27.558;2023-03-02T00:28:44;8.90;;;6.70;;
78840;SDS011;68191;47.190;27.558;2023-03-02T00:31:15;7.90;;;5.70;;
78840;SDS011;68191;47.190;27.558;2023-03-02T00:33:45;8.00;;;5.90;;
78840;SDS011;68191;47.190;27.558;2023-03-02T00:36:17;7.70;;;5.70;;
78840;SDS011;68191;47.190;27.558;2023-03-02T00:38:49;8.20;;;6.50;;
78840;SDS011;68191;47.190;27.558;2023-03-02T00:41:19;8.40;;;5.80;;
78840;SDS011;68191;47.190;27.558;2023-03-02T00:43:50;7.30;;;6.00;;
78840;SDS011;68191;47.190;27.558;2023-03-02T00:46:21;8.70;;;5.90;;
78840;SDS011;68191;47.190;27.558;2023-03-02T00:48:54;8.10;;;6.10;;
78840;SDS011;68191;47.190;27.558;2023-03-02T00:51:24;10.60;;;6.30;;
78840;SDS011;68191;47.190;27.558;2023-03-02T00:53:54;7.30;;;5.30;;
78840;SDS011;68191;47.190;27.558;2023-03-02T00:56:29;9.00;;;5.90;;
78840;SDS011;68191;47.190;27.558;2023-03-02T00:59:02;7.60;;;5.70;;
78840;SDS011;68191;47.190;27.558;2023-03-02T01:01:37;7.80;;;6.00;;
78840;SDS011;68191;47.190;27.558;2023-03-02T01:04:07;8.10;;;5.90;;
78840;SDS011;68191;47.190;27.558;2023-03-02T01:06:38;7.20;;;5.50;;
78840;SDS011;68191;47.190;27.558;2023-03-02T01:09:13;8.30;;;6.80;;
78840;SDS011;68191;47.190;27.558;2023-03-02T01:11:44;8.50;;;7.00;;
78840;SDS011;68191;47.190;27.558;2023-03-02T01:14:14;8.10;;;6.40;;
78840;SDS011;68191;47.190;27.558;2023-03-02T01:16:44;7.30;;;6.00;;
78840;SDS011;68191;47.190;27.558;2023-03-02T01:19:15;8.20;;;6.10;;
78840;SDS011;68191;47.190;27.558;2023-03-02T01:21:46;8.10;;;6.00;;
78840;SDS011;68191;47.190;27.558;2023-03-02T01:24:16;7.20;;;5.90;;
78840;SDS011;68191;47.190;27.558;2023-03-02T01:26:46;7.80;;;5.90;;
78840;SDS011;68191;47.190;27.558;2023-03-02T01:29:17;7.90;;;6.50;;
78840;SDS011;68191;47.190;27.558;2023-03-02T01:31:47;7.70;;;6.00;;
78840;SDS011;68191;47.190;27.558;2023-03-02T01:34:18;7.70;;;5.90;;
78840;SDS011;68191;47.190;27.558;2023-03-02T01:36:48;7.60;;;5.80;;
78840;SDS011;68191;47.190;27.558;2023-03-02T01:39:18;9.20;;;6.20;;
78840;SDS011;68191;47.190;27.558;2023-03-02T01:41:50;8.80;;;6.40;;
78840;SDS011;68191;47.190;27.558;2023-03-02T01:44:34;9.10;;;6.10;;
78840;SDS011;68191;47.190;27.558;2023-03-02T01:47:16;8.20;;;6.20;;
78840;SDS011;68191;47.190;27.558;2023-03-02T01:49:50;8.10;;;6.10;;
78840;SDS011;68191;47.190;27.558;2023-03-02T01:52:24;7.10;;;5.70;;
78840;SDS011;68191;47.190;27.558;2023-03-02T01:54:56;7.40;;;5.70;;
78840;SDS011;68191;47.190;27.558;2023-03-02T01:57:30;8.70;;;6.90;;
78840;SDS011;68191;47.190;27.558;2023-03-02T02:00:10;8.70;;;6.20;;
78840;SDS011;68191;47.190;27.558;2023-03-02T02:02:46;7.40;;;6.20;;
78840;SDS011;68191;47.190;27.558;2023-03-02T02:05:18;9.30;;;6.40;;
78840;SDS011;68191;47.190;27.558;2023-03-02T02:07:51;8.80;;;6.10;;
78840;SDS011;68191;47.190;27.558;2023-03-02T02:10:21;8.30;;;6.00;;
78840;SDS011;68191;47.190;27.558;2023-03-02T02:12:52;9.10;;;5.70;;
78840;SDS011;68191;47.190;27.558;2023-03-02T02:15:22;8.90;;;6.10;;
78840;SDS011;68191;47.190;27.558;2023-03-02T02:17:52;9.80;;;6.00;;
78840;SDS011;68191;47.190;27.558;2023-03-02T02:20:26;8.20;;;6.70;;
78840;SDS011;68191;47.190;27.558;2023-03-02T02:23:07;8.10;;;6.00;;
78840;SDS011;68191;47.190;27.558;2023-03-02T02:25:53;8.70;;;6.70;;
78840;SDS011;68191;47.190;27.558;2023-03-02T02:28:39;7.70;;;5.90;;
78840;SDS011;68191;47.190;27.558;2023-03-02T02:31:15;8.00;;;6.20;;
78840;SDS011;68191;47.190;27.558;2023-03-02T02:33:53;8.40;;;6.40;;
78840;SDS011;68191;47.190;27.558;2023-03-02T02:36:27;8.50;;;5.90;;
78840;SDS011;68191;47.190;27.558;2023-03-02T02:39:00;9.80;;;6.70;;
78840;SDS011;68191;47.190;27.558;2023-03-02T02:41:34;7.10;;;5.60;;
78840;SDS011;68191;47.190;27.558;2023-03-02T02:44:08;8.20;;;6.20;;
78840;SDS011;68191;47.190;27.558;2023-03-02T02:46:40;8.10;;;6.10;;
78840;SDS011;68191;47.190;27.558;2023-03-02T02:49:13;9.20;;;6.40;;
78840;SDS011;68191;47.190;27.558;2023-03-02T02:51:55;7.50;;;6.50;;
78840;SDS011;68191;47.190;27.558;2023-03-02T02:54:26;8.20;;;6.50;;
78840;SDS011;68191;47.190;27.558;2023-03-02T02:56:58;8.60;;;6.30;;
78840;SDS011;68191;47.190;27.558;2023-03-02T02:59:31;7.60;;;6.10;;
78840;SDS011;68191;47.190;27.558;2023-03-02T03:02:05;8.10;;;6.40;;
78840;SDS011;68191;47.190;27.558;2023-03-02T03:04:43;8.80;;;6.50;;
78840;SDS011;68191;47.190;27.558;2023-03-02T03:07:16;8.20;;;5.90;;
78840;SDS011;68191;47.190;27.558;2023-03-02T03:09:50;8.20;;;6.40;;
78840;SDS011;68191;47.190;27.558;2023-03-02T03:12:27;7.80;;;6.20;;
78840;SDS011;68191;47.190;27.558;2023-03-02T03:14:59;8.20;;;6.10;;
78840;SDS011;68191;47.190;27.558;2023-03-02T03:17:30;7.80;;;6.00;;
78840;SDS011;68191;47.190;27.558;2023-03-02T03:20:01;7.40;;;6.20;;
78840;SDS011;68191;47.190;27.558;2023-03-02T03:22:35;7.70;;;6.00;;
78840;SDS011;68191;47.190;27.558;2023-03-02T03:25:06;7.90;;;5.90;;
78840;SDS011;68191;47.190;27.558;2023-03-02T03:27:42;8.10;;;6.10;;
78840;SDS011;68191;47.190;27.558;2023-03-02T03:30:13;8.30;;;6.40;;
78840;SDS011;68191;47.190;27.558;2023-03-02T03:32:44;7.50;;;6.70;;
78840;SDS011;68191;47.190;27.558;2023-03-02T03:35:14;8.20;;;6.30;;
78840;SDS011;68191;47.190;27.558;2023-03-02T03:37:45;7.10;;;5.50;;
78840;SDS011;68191;47.190;27.558;2023-03-02T03:40:15;8.10;;;6.30;;
78840;SDS011;68191;47.190;27.558;2023-03-02T03:42:45;8.70;;;6.70;;
78840;SDS011;68191;47.190;27.558;2023-03-02T03:45:16;9.50;;;6.60;;
78840;SDS011;68191;47.190;27.558;2023-03-02T03:47:46;8.70;;;6.60;;
78840;SDS011;68191;47.190;27.558;2023-03-02T03:50:17;7.20;;;5.90;;
78840;SDS011;68191;47.190;27.558;2023-03-02T03:52:47;8.40;;;6.50;;
78840;SDS011;68191;47.190;27.558;2023-03-02T03:55:19;9.30;;;6.70;;
78840;SDS011;68191;47.190;27.558;2023-03-02T03:57:49;9.00;;;6.60;;
78840;SDS011;68191;47.190;27.558;2023-03-02T04:00:20;9.50;;;6.70;;
78840;SDS011;68191;47.190;27.558;2023-03-02T04:02:51;8.00;;;6.60;;
78840;SDS011;68191;47.190;27.558;2023-03-02T04:05:22;8.10;;;6.30;;
78840;SDS011;68191;47.190;27.558;2023-03-02T04:07:52;9.20;;;7.00;;
78840;SDS011;68191;47.190;27.558;2023-03-02T04:10:23;7.90;;;6.70;;
78840;SDS011;68191;47.190;27.558;2023-03-02T04:12:53;7.80;;;6.10;;
78840;SDS011;68191;47.190;27.558;2023-03-02T04:15:23;8.10;;;6.50;;
78840;SDS011;68191;47.190;27.558;2023-03-02T04:17:54;7.70;;;6.00;;
78840;SDS011;68191;47.190;27.558;2023-03-02T04:20:27;9.20;;;6.60;;
78840;SDS011;68191;47.190;27.558;2023-03-02T04:22:58;8.40;;;6.80;;
78840;SDS011;68191;47.190;27.558;2023-03-02T04:25:29;7.10;;;5.90;;
78840;SDS011;68191;47.190;27.558;2023-03-02T04:27:59;8.60;;;6.40;;
78840;SDS011;68191;47.190;27.558;2023-03-02T04:30:30;7.90;;;6.30;;
78840;SDS011;68191;47.190;27.558;2023-03-02T04:33:00;7.60;;;6.30;;
78840;SDS011;68191;47.190;27.558;2023-03-02T04:35:30;7.60;;;5.90;;
78840;SDS011;68191;47.190;27.558;2023-03-02T04:38:01;8.70;;;6.70;;
78840;SDS011;68191;47.190;27.558;2023-03-02T04:40:31;7.90;;;6.30;;
78840;SDS011;68191;47.190;27.558;2023-03-02T04:43:02;7.30;;;5.90;;
78840;SDS011;68191;47.190;27.558;2023-03-02T04:45:32;8.40;;;6.70;;
78840;SDS011;68191;47.190;27.558;2023-03-02T04:48:03;7.40;;;5.60;;
78840;SDS011;68191;47.190;27.558;2023-03-02T04:50:34;8.60;;;6.90;;
78840;SDS011;68191;47.190;27.558;2023-03-02T04:53:05;8.10;;;6.30;;
78840;SDS011;68191;47.190;27.558;2023-03-02T04:55:38;8.90;;;6.70;;
78840;SDS011;68191;47.190;27.558;2023-03-02T04:58:08;7.90;;;6.10;;
78840;SDS011;68191;47.190;27.558;2023-03-02T05:00:39;9.10;;;7.00;;
78840;SDS011;68191;47.190;27.558;2023-03-02T05:03:10;8.80;;;6.60;;
78840;SDS011;68191;47.190;27.558;2023-03-02T05:05:40;8.80;;;6.20;;
78840;SDS011;68191;47.190;27.558;2023-03-02T05:08:11;8.60;;;6.70;;
78840;SDS011;68191;47.190;27.558;2023-03-02T05:10:41;7.20;;;5.90;;
78840;SDS011;68191;47.190;27.558;2023-03-02T05:13:12;9.50;;;6.60;;
78840;SDS011;68191;47.190;27.558;2023-03-02T05:15:42;8.30;;;6.20;;
78840;SDS011;68191;47.190;27.558;2023-03-02T05:18:13;7.70;;;6.00;;
78840;SDS011;68191;47.190;27.558;2023-03-02T05:20:43;9.20;;;6.30;;
78840;SDS011;68191;47.190;27.558;2023-03-02T05:23:16;8.10;;;6.40;;
78840;SDS011;68191;47.190;27.558;2023-03-02T05:25:53;7.90;;;5.90;;
78840;SDS011;68191;47.190;27.558;2023-03-02T05:28:24;7.60;;;6.40;;
78840;SDS011;68191;47.190;27.558;2023-03-02T05:30:55;6.90;;;5.70;;
78840;SDS011;68191;47.190;27.558;2023-03-02T05:33:26;7.80;;;5.90;;
78840;SDS011;68191;47.190;27.558;2023-03-02T05:35:57;9.60;;;6.90;;
78840;SDS011;68191;47.190;27.558;2023-03-02T05:38:28;8.40;;;6.60;;
78840;SDS011;68191;47.190;27.558;2023-03-02T05:40:59;7.80;;;6.20;;
78840;SDS011;68191;47.190;27.558;2023-03-02T05:43:29;7.40;;;6.30;;
78840;SDS011;68191;47.190;27.558;2023-03-02T05:45:59;7.70;;;6.30;;
78840;SDS011;68191;47.190;27.558;2023-03-02T05:48:30;8.10;;;6.80;;
78840;SDS011;68191;47.190;27.558;2023-03-02T05:51:01;8.80;;;6.20;;
78840;SDS011;68191;47.190;27.558;2023-03-02T05:53:32;7.40;;;6.20;;
78840;SDS011;68191;47.190;27.558;2023-03-02T05:56:03;8.60;;;6.90;;
78840;SDS011;68191;47.190;27.558;2023-03-02T05:58:35;8.10;;;6.30;;
78840;SDS011;68191;47.190;27.558;2023-03-02T06:01:08;6.60;;;5.50;;
78840;SDS011;68191;47.190;27.558;2023-03-02T06:03:39;8.10;;;6.20;;
78840;SDS011;68191;47.190;27.558;2023-03-02T06:06:10;8.70;;;5.50;;
78840;SDS011;68191;47.190;27.558;2023-03-02T06:08:42;7.60;;;5.80;;
78840;SDS011;68191;47.190;27.558;2023-03-02T06:11:13;9.40;;;6.50;;
78840;SDS011;68191;47.190;27.558;2023-03-02T06:13:43;7.70;;;5.70;;
78840;SDS011;68191;47.190;27.558;2023-03-02T06:16:14;6.70;;;5.90;;
78840;SDS011;68191;47.190;27.558;2023-03-02T06:18:44;8.00;;;6.30;;
78840;SDS011;68191;47.190;27.558;2023-03-02T06:21:15;7.80;;;6.30;;
78840;SDS011;68191;47.190;27.558;2023-03-02T06:23:45;7.70;;;6.20;;
78840;SDS011;68191;47.190;27.558;2023-03-02T06:26:16;9.90;;;6.20;;
78840;SDS011;68191;47.190;27.558;2023-03-02T06:28:46;9.20;;;7.40;;
78840;SDS011;68191;47.190;27.558;2023-03-02T06:31:17;9.40;;;7.60;;
78840;SDS011;68191;47.190;27.558;2023-03-02T06:33:47;9.10;;;7.50;;
78840;SDS011;68191;47.190;27.558;2023-03-02T06:36:17;8.80;;;6.30;;
78840;SDS011;68191;47.190;27.558;2023-03-02T06:38:48;9.40;;;7.00;;
78840;SDS011;68191;47.190;27.558;2023-03-02T06:41:19;8.70;;;6.80;;
78840;SDS011;68191;47.190;27.558;2023-03-02T06:43:49;9.20;;;7.20;;
78840;SDS011;68191;47.190;27.558;2023-03-02T06:46:19;8.70;;;7.30;;
78840;SDS011;68191;47.190;27.558;2023-03-02T06:48:50;8.60;;;6.60;;
78840;SDS011;68191;47.190;27.558;2023-03-02T06:51:20;10.10;;;7.30;;
78840;SDS011;68191;47.190;27.558;2023-03-02T06:53:51;9.00;;;7.40;;
78840;SDS011;68191;47.190;27.558;2023-03-02T06:56:22;8.90;;;6.20;;
78840;SDS011;68191;47.190;27.558;2023-03-02T06:58:52;8.60;;;6.50;;
78840;SDS011;68191;47.190;27.558;2023-03-02T07:01:23;9.50;;;6.50;;
78840;SDS011;68191;47.190;27.558;2023-03-02T07:03:53;8.20;;;6.60;;
78840;SDS011;68191;47.190;27.558;2023-03-02T07:06:23;8.90;;;6.30;;
78840;SDS011;68191;47.190;27.558;2023-03-02T07:08:54;7.70;;;6.10;;
78840;SDS011;68191;47.190;27.558;2023-03-02T07:11:24;7.90;;;6.10;;
78840;SDS011;68191;47.190;27.558;2023-03-02T07:13:54;11.20;;;6.40;;
78840;SDS011;68191;47.190;27.558;2023-03-02T07:16:26;8.80;;;6.10;;
78840;SDS011;68191;47.190;27.558;2023-03-02T07:18:57;9.00;;;6.70;;
78840;SDS011;68191;47.190;27.558;2023-03-02T07:21:28;8.90;;;6.50;;
78840;SDS011;68191;47.190;27.558;2023-03-02T07:23:58;8.50;;;6.70;;
78840;SDS011;68191;47.190;27.558;2023-03-02T07:26:29;11.60;;;6.70;;
78840;SDS011;68191;47.190;27.558;2023-03-02T07:28:59;9.10;;;6.10;;
78840;SDS011;68191;47.190;27.558;2023-03-02T07:31:30;13.20;;;6.30;;
78840;SDS011;68191;47.190;27.558;2023-03-02T07:34:00;8.80;;;5.90;;
78840;SDS011;68191;47.190;27.558;2023-03-02T07:36:31;9.80;;;6.10;;
78840;SDS011;68191;47.190;27.558;2023-03-02T07:39:02;9.00;;;6.40;;
78840;SDS011;68191;47.190;27.558;2023-03-02T07:41:33;8.30;;;5.30;;
78840;SDS011;68191;47.190;27.558;2023-03-02T07:44:04;8.40;;;6.30;;
78840;SDS011;68191;47.190;27.558;2023-03-02T07:46:34;8.40;;;6.70;;
78840;SDS011;68191;47.190;27.558;2023-03-02T07:49:05;10.20;;;6.20;;
78840;SDS011;68191;47.190;27.558;2023-03-02T07:51:35;8.20;;;6.30;;
78840;SDS011;68191;47.190;27.558;2023-03-02T07:54:06;9.20;;;6.10;;
78840;SDS011;68191;47.190;27.558;2023-03-02T07:56:37;10.40;;;6.40;;
78840;SDS011;68191;47.190;27.558;2023-03-02T07:59:07;8.50;;;6.00;;
78840;SDS011;68191;47.190;27.558;2023-03-02T08:01:38;7.60;;;5.50;;
78840;SDS011;68191;47.190;27.558;2023-03-02T08:04:09;7.20;;;5.60;;
78840;SDS011;68191;47.190;27.558;2023-03-02T08:06:39;7.90;;;5.10;;
78840;SDS011;68191;47.190;27.558;2023-03-02T08:09:10;7.50;;;5.50;;
78840;SDS011;68191;47.190;27.558;2023-03-02T08:11:40;8.00;;;5.80;;
78840;SDS011;68191;47.190;27.558;2023-03-02T08:14:13;8.50;;;6.40;;
78840;SDS011;68191;47.190;27.558;2023-03-02T08:16:44;7.80;;;5.70;;
78840;SDS011;68191;47.190;27.558;2023-03-02T08:19:14;9.40;;;6.10;;
78840;SDS011;68191;47.190;27.558;2023-03-02T08:21:45;7.90;;;5.60;;
78840;SDS011;68191;47.190;27.558;2023-03-02T08:24:16;11.20;;;6.40;;
78840;SDS011;68191;47.190;27.558;2023-03-02T08:26:46;7.40;;;5.50;;
78840;SDS011;68191;47.190;27.558;2023-03-02T08:29:17;8.60;;;6.30;;
78840;SDS011;68191;47.190;27.558;2023-03-02T08:31:47;7.60;;;5.50;;
78840;SDS011;68191;47.190;27.558;2023-03-02T08:34:18;10.00;;;5.90;;
78840;SDS011;68191;47.190;27.558;2023-03-02T08:36:48;9.30;;;6.20;;
78840;SDS011;68191;47.190;27.558;2023-03-02T08:39:19;8.80;;;5.70;;
78840;SDS011;68191;47.190;27.558;2023-03-02T08:41:50;8.90;;;5.60;;
78840;SDS011;68191;47.190;27.558;2023-03-02T08:44:21;7.20;;;5.60;;
78840;SDS011;68191;47.190;27.558;2023-03-02T08:46:52;8.40;;;5.80;;
78840;SDS011;68191;47.190;27.558;2023-03-02T08:49:22;6.60;;;5.40;;
78840;SDS011;68191;47.190;27.558;2023-03-02T08:51:53;6.40;;;5.10;;
78840;SDS011;68191;47.190;27.558;2023-03-02T08:54:26;8.30;;;5.30;;
78840;SDS011;68191;47.190;27.558;2023-03-02T08:56:57;9.20;;;5.80;;
78840;SDS011;68191;47.190;27.558;2023-03-02T08:59:28;10.80;;;5.00;;
78840;SDS011;68191;47.190;27.558;2023-03-02T09:01:59;7.60;;;5.20;;
78840;SDS011;68191;47.190;27.558;2023-03-02T09:04:30;9.10;;;5.90;;
78840;SDS011;68191;47.190;27.558;2023-03-02T09:07:01;7.80;;;5.30;;
78840;SDS011;68191;47.190;27.558;2023-03-02T09:09:32;7.70;;;5.60;;
78840;SDS011;68191;47.190;27.558;2023-03-02T09:12:03;7.20;;;5.20;;
78840;SDS011;68191;47.190;27.558;2023-03-02T09:14:33;7.00;;;5.30;;
78840;SDS011;68191;47.190;27.558;2023-03-02T09:17:04;7.80;;;5.10;;
78840;SDS011;68191;47.190;27.558;2023-03-02T09:19:35;6.90;;;4.80;;
78840;SDS011;68191;47.190;27.558;2023-03-02T09:22:08;8.30;;;5.10;;
78840;SDS011;68191;47.190;27.558;2023-03-02T09:24:38;6.40;;;4.90;;
78840;SDS011;68191;47.190;27.558;2023-03-02T09:27:09;6.90;;;5.20;;
78840;SDS011;68191;47.190;27.558;2023-03-02T09:29:40;7.00;;;4.90;;
78840;SDS011;68191;47.190;27.558;2023-03-02T09:32:11;6.20;;;5.20;;
78840;SDS011;68191;47.190;27.558;2023-03-02T09:34:42;6.60;;;5.20;;
78840;SDS011;68191;47.190;27.558;2023-03-02T09:37:12;7.60;;;5.20;;
78840;SDS011;68191;47.190;27.558;2023-03-02T09:39:43;6.90;;;5.00;;
78840;SDS011;68191;47.190;27.558;2023-03-02T09:42:26;7.30;;;5.50;;
78840;SDS011;68191;47.190;27.558;2023-03-02T09:45:14;6.60;;;5.10;;
78840;SDS011;68191;47.190;27.558;2023-03-02T09:47:57;8.60;;;5.60;;
78840;SDS011;68191;47.190;27.558;2023-03-02T09:50:40;6.40;;;5.10;;
78840;SDS011;68191;47.190;27.558;2023-03-02T09:53:30;6.30;;;5.30;;
78840;SDS011;68191;47.190;27.558;2023-03-02T09:56:11;5.70;;;4.80;;
78840;SDS011;68191;47.190;27.558;2023-03-02T09:58:46;6.80;;;5.00;;
78840;SDS011;68191;47.190;27.558;2023-03-02T10:01:26;7.10;;;5.50;;
78840;SDS011;68191;47.190;27.558;2023-03-02T10:04:12;6.00;;;4.60;;
78840;SDS011;68191;47.190;27.558;2023-03-02T10:06:49;6.20;;;5.10;;
78840;SDS011;68191;47.190;27.558;2023-03-02T10:09:25;6.00;;;4.70;;
78840;SDS011;68191;47.190;27.558;2023-03-02T10:12:07;7.10;;;5.40;;
78840;SDS011;68191;47.190;27.558;2023-03-02T10:14:50;7.10;;;5.20;;
78840;SDS011;68191;47.190;27.558;2023-03-02T10:17:32;6.40;;;4.70;;
78840;SDS011;68191;47.190;27.558;2023-03-02T10:20:12;6.20;;;4.90;;
78840;SDS011;68191;47.190;27.558;2023-03-02T10:22:48;6.40;;;4.70;;
78840;SDS011;68191;47.190;27.558;2023-03-02T10:25:27;7.10;;;5.30;;
78840;SDS011;68191;47.190;27.558;2023-03-02T10:28:14;6.90;;;5.10;;
78840;SDS011;68191;47.190;27.558;2023-03-02T10:30:47;7.00;;;5.10;;
78840;SDS011;68191;47.190;27.558;2023-03-02T10:33:23;6.30;;;4.40;;
78840;SDS011;68191;47.190;27.558;2023-03-02T10:35:55;6.90;;;4.10;;
78840;SDS011;68191;47.190;27.558;2023-03-02T10:38:28;6.00;;;4.60;;
78840;SDS011;68191;47.190;27.558;2023-03-02T10:41:00;5.80;;;4.60;;
78840;SDS011;68191;47.190;27.558;2023-03-02T10:43:35;6.60;;;4.60;;
78840;SDS011;68191;47.190;27.558;2023-03-02T10:46:11;6.20;;;4.30;;
78840;SDS011;68191;47.190;27.558;2023-03-02T10:48:48;5.60;;;4.30;;
78840;SDS011;68191;47.190;27.558;2023-03-02T10:51:23;6.30;;;4.50;;
78840;SDS011;68191;47.190;27.558;2023-03-02T10:54:06;5.80;;;4.00;;
78840;SDS011;68191;47.190;27.558;2023-03-02T10:56:40;7.20;;;4.20;;
78840;SDS011;68191;47.190;27.558;2023-03-02T10:59:25;5.10;;;4.30;;
78840;SDS011;68191;47.190;27.558;2023-03-02T11:02:16;5.80;;;4.30;;
78840;SDS011;68191;47.190;27.558;2023-03-02T11:04:52;4.90;;;4.10;;
78840;SDS011;68191;47.190;27.558;2023-03-02T11:07:26;4.80;;;3.90;;
78840;SDS011;68191;47.190;27.558;2023-03-02T11:09:58;5.60;;;3.90;;
78840;SDS011;68191;47.190;27.558;2023-03-02T11:12:31;5.60;;;3.50;;
78840;SDS011;68191;47.190;27.558;2023-03-02T11:15:13;4.80;;;3.90;;
78840;SDS011;68191;47.190;27.558;2023-03-02T11:17:50;5.70;;;4.20;;
78840;SDS011;68191;47.190;27.558;2023-03-02T11:20:35;6.00;;;4.20;;
78840;SDS011;68191;47.190;27.558;2023-03-02T11:23:14;4.70;;;3.80;;
78840;SDS011;68191;47.190;27.558;2023-03-02T11:25:53;4.90;;;3.60;;
78840;SDS011;68191;47.190;27.558;2023-03-02T11:31:15;5.10;;;3.70;;
78840;SDS011;68191;47.190;27.558;2023-03-02T11:36:57;5.20;;;3.90;;
78840;SDS011;68191;47.190;27.558;2023-03-02T11:39:38;6.60;;;4.00;;
78840;SDS011;68191;47.190;27.558;2023-03-02T11:42:23;6.90;;;3.80;;
78840;SDS011;68191;47.190;27.558;2023-03-02T11:44:57;4.80;;;2.90;;
78840;SDS011;68191;47.190;27.558;2023-03-02T11:47:37;4.30;;;3.00;;
78840;SDS011;68191;47.190;27.558;2023-03-02T11:50:10;6.10;;;3.40;;
78840;SDS011;68191;47.190;27.558;2023-03-02T11:52:43;7.00;;;3.60;;
78840;SDS011;68191;47.190;27.558;2023-03-02T11:55:19;7.30;;;3.70;;
78840;SDS011;68191;47.190;27.558;2023-03-02T11:57:51;5.50;;;3.50;;
78840;SDS011;68191;47.190;27.558;2023-03-02T12:00:28;6.20;;;3.20;;
78840;SDS011;68191;47.190;27.558;2023-03-02T12:03:01;6.20;;;3.30;;
78840;SDS011;68191;47.190;27.558;2023-03-02T12:05:35;5.10;;;3.10;;
78840;SDS011;68191;47.190;27.558;2023-03-02T12:08:27;5.70;;;3.20;;
78840;SDS011;68191;47.190;27.558;2023-03-02T12:11:02;5.30;;;3.50;;
78840;SDS011;68191;47.190;27.558;2023-03-02T12:13:35;4.70;;;3.40;;
78840;SDS011;68191;47.190;27.558;2023-03-02T12:16:19;7.30;;;3.80;;
78840;SDS011;68191;47.190;27.558;2023-03-02T12:19:09;4.90;;;3.70;;
78840;SDS011;68191;47.190;27.558;2023-03-02T12:21:42;8.00;;;3.30;;
78840;SDS011;68191;47.190;27.558;2023-03-02T12:24:24;5.10;;;3.40;;
78840;SDS011;68191;47.190;27.558;2023-03-02T12:29:39;5.90;;;3.70;;
78840;SDS011;68191;47.190;27.558;2023-03-02T12:32:12;4.60;;;3.30;;
78840;SDS011;68191;47.190;27.558;2023-03-02T12:34:55;5.20;;;3.10;;
78840;SDS011;68191;47.190;27.558;2023-03-02T12:37:29;4.20;;;3.30;;
78840;SDS011;68191;47.190;27.558;2023-03-02T12:43:27;4.90;;;3.20;;
78840;SDS011;68191;47.190;27.558;2023-03-02T12:46:21;4.70;;;3.30;;
78840;SDS011;68191;47.190;27.558;2023-03-02T12:51:58;5.80;;;3.20;;
78840;SDS011;68191;47.190;27.558;2023-03-02T12:54:31;6.10;;;3.30;;
78840;SDS011;68191;47.190;27.558;2023-03-02T12:57:03;4.90;;;3.40;;
78840;SDS011;68191;47.190;27.558;2023-03-02T12:59:35;5.30;;;3.40;;
78840;SDS011;68191;47.190;27.558;2023-03-02T13:02:13;5.60;;;3.20;;
78840;SDS011;68191;47.190;27.558;2023-03-02T13:04:50;6.30;;;3.20;;
78840;SDS011;68191;47.190;27.558;2023-03-02T13:07:23;5.70;;;3.20;;
78840;SDS011;68191;47.190;27.558;2023-03-02T13:09:56;6.40;;;3.50;;
78840;SDS011;68191;47.190;27.558;2023-03-02T13:12:27;5.90;;;3.30;;
78840;SDS011;68191;47.190;27.558;2023-03-02T13:14:58;6.10;;;3.10;;
78840;SDS011;68191;47.190;27.558;2023-03-02T13:17:30;6.50;;;2.80;;
78840;SDS011;68191;47.190;27.558;2023-03-02T13:20:01;5.90;;;3.20;;
78840;SDS011;68191;47.190;27.558;2023-03-02T13:22:33;4.90;;;2.80;;
78840;SDS011;68191;47.190;27.558;2023-03-02T13:25:05;3.60;;;2.70;;
78840;SDS011;68191;47.190;27.558;2023-03-02T13:27:52;5.40;;;3.50;;
78840;SDS011;68191;47.190;27.558;2023-03-02T13:30:27;5.60;;;2.80;;
78840;SDS011;68191;47.190;27.558;2023-03-02T13:35:30;7.20;;;2.70;;
78840;SDS011;68191;47.190;27.558;2023-03-02T13:38:04;6.20;;;3.00;;
78840;SDS011;68191;47.190;27.558;2023-03-02T13:40:42;4.90;;;2.70;;
78840;SDS011;68191;47.190;27.558;2023-03-02T13:43:29;4.00;;;2.50;;
78840;SDS011;68191;47.190;27.558;2023-03-02T13:49:02;4.50;;;2.50;;
78840;SDS011;68191;47.190;27.558;2023-03-02T13:51:36;5.70;;;3.40;;
78840;SDS011;68191;47.190;27.558;2023-03-02T13:54:13;5.30;;;2.90;;
78840;SDS011;68191;47.190;27.558;2023-03-02T13:56:50;4.80;;;2.60;;
78840;SDS011;68191;47.190;27.558;2023-03-02T13:59:21;4.60;;;2.80;;
78840;SDS011;68191;47.190;27.558;2023-03-02T14:01:51;4.70;;;2.80;;
78840;SDS011;68191;47.190;27.558;2023-03-02T14:04:22;4.50;;;2.60;;
78840;SDS011;68191;47.190;27.558;2023-03-02T14:06:53;3.80;;;2.50;;
78840;SDS011;68191;47.190;27.558;2023-03-02T14:09:23;4.00;;;2.60;;
78840;SDS011;68191;47.190;27.558;2023-03-02T14:11:54;4.30;;;2.80;;
78840;SDS011;68191;47.190;27.558;2023-03-02T14:14:25;5.40;;;2.70;;
78840;SDS011;68191;47.190;27.558;2023-03-02T14:16:58;3.60;;;2.50;;
78840;SDS011;68191;47.190;27.558;2023-03-02T14:19:29;4.70;;;2.80;;
78840;SDS011;68191;47.190;27.558;2023-03-02T14:21:59;4.60;;;2.60;;
78840;SDS011;68191;47.190;27.558;2023-03-02T14:24:29;4.80;;;2.50;;
78840;SDS011;68191;47.190;27.558;2023-03-02T14:27:00;3.50;;;2.50;;
78840;SDS011;68191;47.190;27.558;2023-03-02T14:29:31;4.50;;;2.60;;
78840;SDS011;68191;47.190;27.558;2023-03-02T14:32:04;4.70;;;2.60;;
78840;SDS011;68191;47.190;27.558;2023-03-02T14:34:38;4.40;;;2.30;;
78840;SDS011;68191;47.190;27.558;2023-03-02T14:37:10;4.30;;;2.80;;
78840;SDS011;68191;47.190;27.558;2023-03-02T14:39:44;4.90;;;2.40;;
78840;SDS011;68191;47.190;27.558;2023-03-02T14:42:17;4.50;;;2.20;;
78840;SDS011;68191;47.190;27.558;2023-03-02T14:44:48;3.90;;;2.40;;
78840;SDS011;68191;47.190;27.558;2023-03-02T14:47:19;4.80;;;2.70;;
78840;SDS011;68191;47.190;27.558;2023-03-02T14:49:50;4.20;;;2.40;;
78840;SDS011;68191;47.190;27.558;2023-03-02T14:52:29;6.10;;;3.00;;
78840;SDS011;68191;47.190;27.558;2023-03-02T14:55:03;6.60;;;2.20;;
78840;SDS011;68191;47.190;27.558;2023-03-02T14:57:41;4.90;;;2.70;;
78840;SDS011;68191;47.190;27.558;2023-03-02T15:00:13;4.60;;;2.90;;
78840;SDS011;68191;47.190;27.558;2023-03-02T15:02:44;3.50;;;2.30;;
78840;SDS011;68191;47.190;27.558;2023-03-02T15:05:15;5.70;;;2.50;;
78840;SDS011;68191;47.190;27.558;2023-03-02T15:07:47;5.00;;;2.90;;
78840;SDS011;68191;47.190;27.558;2023-03-02T15:10:20;4.10;;;2.30;;
78840;SDS011;68191;47.190;27.558;2023-03-02T15:12:51;3.90;;;2.70;;
78840;SDS011;68191;47.190;27.558;2023-03-02T15:15:21;5.20;;;2.70;;
78840;SDS011;68191;47.190;27.558;2023-03-02T15:17:53;3.60;;;2.50;;
78840;SDS011;68191;47.190;27.558;2023-03-02T15:20:24;4.00;;;2.70;;
78840;SDS011;68191;47.190;27.558;2023-03-02T15:22:54;6.00;;;2.50;;
78840;SDS011;68191;47.190;27.558;2023-03-02T15:25:25;5.00;;;3.00;;
78840;SDS011;68191;47.190;27.558;2023-03-02T15:27:55;5.20;;;2.70;;